Search for airport 
image banner adimage banner adimage banner ad
image banner ad

4CN7 - Children's Hospital Of Los Angeles Ii

Located in Los Angeles, United States

ICAO - 4CN7, IATA -

Data provided by Airmate  

General information

Coordinates: N34°5'50" W118°17'19"
Elevation is 529 feet MSL.
 
View others Airports in California

Operational data

Special qualification required
Current time UTC:
Current local time:
Weather at : KBUR - Bob Hope ( 13 km )
METAR: KBUR 211053Z 17005KT 10SM BKN008 16/13 A2992 RMK AO2 SLP119 T01610133 $
TAF: KBUR 210535Z 2106/2206 15006KT P6SM SKC FM211100 16004KT 2SM BR OVC004 FM211530 14008KT P6SM SKC FM212100 18011KT P6SM SKC FM220300 14008KT P6SM SKC
View NOTAMs / SUP AIP / TFR affecting this airport [VIEW]
Communications frequencies: [VIEW]

Runways:

Airport contact information

Address: Los Angeles United States

Satellite view of 4CN7